createdAt,value
2023-04-15T00:00:59.681Z,17.92
2023-04-15T00:03:28.655Z,17.88
2023-04-15T00:05:57.110Z,17.87
2023-04-15T00:08:25.576Z,17.87
2023-04-15T00:10:54.365Z,17.85
2023-04-15T00:13:22.720Z,17.81
2023-04-15T00:15:50.787Z,17.80
2023-04-15T00:18:20.235Z,17.79
2023-04-15T00:20:48.375Z,17.76
2023-04-15T00:23:16.493Z,17.75
2023-04-15T00:25:44.683Z,17.73
2023-04-15T00:28:12.820Z,17.71
2023-04-15T00:30:41.678Z,17.70
2023-04-15T00:33:09.820Z,17.67
2023-04-15T00:35:39.493Z,17.65
2023-04-15T00:38:08.204Z,17.62
2023-04-15T00:40:36.618Z,17.62
2023-04-15T00:43:05.741Z,17.59
2023-04-15T00:45:34.243Z,17.59
2023-04-15T00:48:02.983Z,17.57
2023-04-15T00:50:31.084Z,17.57
2023-04-15T00:53:00.614Z,17.54
2023-04-15T00:55:28.660Z,17.51
2023-04-15T00:57:57.995Z,17.52
2023-04-15T01:00:26.749Z,17.50
2023-04-15T01:02:55.045Z,17.48
2023-04-15T01:05:23.709Z,17.47
2023-04-15T01:07:51.839Z,17.42
2023-04-15T01:10:21.413Z,17.44
2023-04-15T01:12:49.764Z,17.41
2023-04-15T01:15:18.226Z,17.41
2023-04-15T01:17:47.239Z,17.37
2023-04-15T01:20:16.680Z,17.36
2023-04-15T01:22:45.220Z,17.36
2023-04-15T01:25:16.497Z,17.35
2023-04-15T01:27:46.462Z,17.34
2023-04-15T01:30:14.636Z,17.34
2023-04-15T01:32:43.008Z,17.32
2023-04-15T01:35:14.255Z,17.32
2023-04-15T01:37:42.730Z,17.30
2023-04-15T01:40:11.326Z,17.29
2023-04-15T01:42:39.491Z,17.28
2023-04-15T01:45:10.534Z,17.26
2023-04-15T01:47:38.577Z,17.24
2023-04-15T01:50:08.602Z,17.25
2023-04-15T01:52:36.852Z,17.24
2023-04-15T01:55:08.622Z,17.21
2023-04-15T01:57:37.062Z,17.21
2023-04-15T02:00:07.721Z,17.14
2023-04-15T02:02:38.036Z,17.20
2023-04-15T02:05:06.932Z,17.17
2023-04-15T02:07:35.076Z,17.13
2023-04-15T02:10:04.102Z,17.14
2023-04-15T02:12:32.302Z,17.13
2023-04-15T02:15:00.468Z,17.12
2023-04-15T02:17:28.529Z,17.12
2023-04-15T02:19:58.538Z,17.10
2023-04-15T02:22:26.689Z,17.09
2023-04-15T02:24:54.785Z,17.07
2023-04-15T02:27:22.838Z,17.07
2023-04-15T02:29:51.403Z,17.07
2023-04-15T02:32:20.204Z,17.05
2023-04-15T02:34:48.381Z,17.03
2023-04-15T02:37:19.240Z,17.02
2023-04-15T02:39:47.378Z,17.03
2023-04-15T02:42:15.488Z,17.01
2023-04-15T02:44:44.381Z,17.01
2023-04-15T02:47:12.440Z,17.00
2023-04-15T02:49:40.493Z,16.97
2023-04-15T02:52:08.636Z,16.98
2023-04-15T02:54:38.017Z,16.97
2023-04-15T02:57:06.883Z,16.96
2023-04-15T02:59:35.005Z,16.93
2023-04-15T03:02:03.148Z,16.94
2023-04-15T03:04:31.281Z,16.93
2023-04-15T03:06:59.363Z,16.92
2023-04-15T03:09:27.533Z,16.92
2023-04-15T03:11:57.025Z,16.90
2023-04-15T03:14:25.178Z,16.90
2023-04-15T03:16:53.234Z,16.88
2023-04-15T03:19:21.776Z,16.89
2023-04-15T03:21:50.050Z,16.85
2023-04-15T03:24:18.106Z,16.86
2023-04-15T03:26:46.475Z,16.84
2023-04-15T03:29:15.918Z,16.84
2023-04-15T03:31:43.963Z,16.83
2023-04-15T03:34:13.206Z,16.83
2023-04-15T03:36:41.441Z,16.82
2023-04-15T03:39:09.788Z,16.81
2023-04-15T03:41:37.802Z,16.80
2023-04-15T03:44:06.399Z,16.80
2023-04-15T03:46:35.909Z,16.80
2023-04-15T03:49:04.329Z,16.79
2023-04-15T03:51:32.838Z,16.79
2023-04-15T03:54:00.978Z,16.77
2023-04-15T03:56:29.082Z,16.75
2023-04-15T03:58:57.187Z,16.76
2023-04-15T04:01:25.262Z,16.75
2023-04-15T04:03:55.184Z,16.73
2023-04-15T04:06:26.644Z,16.72
2023-04-15T04:08:54.728Z,16.74
2023-04-15T04:11:22.829Z,16.71
2023-04-15T04:13:50.972Z,16.71
2023-04-15T04:16:19.195Z,16.68
2023-04-15T04:18:47.262Z,16.69
2023-04-15T04:21:17.656Z,16.68
2023-04-15T04:23:45.748Z,16.67
2023-04-15T04:26:13.814Z,16.67
2023-04-15T04:28:42.140Z,16.63
2023-04-15T04:31:10.365Z,16.66
2023-04-15T04:33:38.414Z,16.65
2023-04-15T04:36:07.124Z,16.66
2023-04-15T04:38:36.628Z,16.65
2023-04-15T04:41:05.002Z,16.65
2023-04-15T04:43:33.091Z,16.64
2023-04-15T04:46:01.410Z,16.64
2023-04-15T04:48:29.730Z,16.63
2023-04-15T04:50:57.951Z,16.64
2023-04-15T04:53:26.399Z,16.62
2023-04-15T04:55:55.878Z,16.62
2023-04-15T04:58:24.157Z,16.63
2023-04-15T05:00:52.434Z,16.62
2023-04-15T05:03:20.800Z,16.62
2023-04-15T05:05:49.326Z,16.58
2023-04-15T05:08:17.655Z,16.60
2023-04-15T05:10:46.165Z,16.59
2023-04-15T05:13:15.597Z,16.58
2023-04-15T05:15:43.725Z,16.58
2023-04-15T05:18:11.855Z,16.59
2023-04-15T05:20:40.452Z,16.60
2023-04-15T05:23:09.092Z,16.61
2023-04-15T05:25:37.498Z,16.62
2023-04-15T05:28:05.756Z,16.58
2023-04-15T05:30:35.611Z,16.59
2023-04-15T05:33:03.708Z,16.58
2023-04-15T05:35:31.921Z,16.59
2023-04-15T05:38:00.671Z,16.59
2023-04-15T05:40:28.769Z,16.58
2023-04-15T05:42:56.873Z,16.58
2023-04-15T05:45:24.899Z,16.59
2023-04-15T05:47:54.792Z,16.55
2023-04-15T05:50:23.127Z,16.57
2023-04-15T05:52:51.247Z,16.58
2023-04-15T05:55:19.346Z,16.58
2023-04-15T05:57:47.420Z,16.59
2023-04-15T06:00:16.458Z,16.56
2023-04-15T06:02:44.766Z,16.59
2023-04-15T06:05:14.497Z,16.59
2023-04-15T06:07:44.214Z,16.59
2023-04-15T06:10:12.867Z,16.58
2023-04-15T06:12:41.066Z,16.59
2023-04-15T06:15:11.356Z,16.58
2023-04-15T06:17:39.465Z,16.58
2023-04-15T06:20:08.944Z,16.59
2023-04-15T06:22:41.456Z,16.57
2023-04-15T06:25:10.995Z,16.60
2023-04-15T06:27:39.134Z,16.58
2023-04-15T06:30:08.498Z,16.58
2023-04-15T06:32:36.826Z,16.59
2023-04-15T06:35:05.534Z,16.58
2023-04-15T06:37:33.621Z,16.58
2023-04-15T06:40:05.156Z,16.58
2023-04-15T06:42:34.089Z,16.60
2023-04-15T06:45:02.453Z,16.55
2023-04-15T06:47:31.261Z,16.58
2023-04-15T06:49:59.590Z,16.55
2023-04-15T06:52:27.807Z,16.59
2023-04-15T06:54:56.225Z,16.60
2023-04-15T06:57:25.890Z,16.59
2023-04-15T06:59:54.702Z,16.60
2023-04-15T07:02:23.345Z,16.60
2023-04-15T07:04:51.588Z,16.60
2023-04-15T07:07:19.689Z,16.62
2023-04-15T07:09:47.824Z,16.62
2023-04-15T07:12:15.909Z,16.63
2023-04-15T07:14:45.462Z,16.63
2023-04-15T07:17:13.748Z,16.64
2023-04-15T07:19:42.048Z,16.65
2023-04-15T07:22:10.222Z,16.64
2023-04-15T07:24:38.768Z,16.65
2023-04-15T07:27:06.913Z,16.67
2023-04-15T07:29:35.123Z,16.66
2023-04-15T07:32:04.889Z,16.64
2023-04-15T07:34:33.075Z,16.68
2023-04-15T07:37:01.531Z,16.69
2023-04-15T07:39:30.011Z,16.69
2023-04-15T07:41:59.546Z,16.68
2023-04-15T07:44:28.154Z,16.69
2023-04-15T07:46:56.503Z,16.71
2023-04-15T07:49:26.067Z,16.72
2023-04-15T07:51:54.934Z,16.72
2023-04-15T07:54:23.113Z,16.71
2023-04-15T07:56:51.376Z,16.71
2023-04-15T07:59:19.545Z,16.72
2023-04-15T08:01:52.246Z,16.72
2023-04-15T08:04:20.475Z,16.72
2023-04-15T08:06:50.381Z,16.72
2023-04-15T08:09:18.673Z,16.70
2023-04-15T08:11:47.371Z,16.70
2023-04-15T08:14:15.754Z,16.69
2023-04-15T08:16:43.864Z,16.67
2023-04-15T08:19:12.029Z,16.70
2023-04-15T08:21:40.696Z,16.70
2023-04-15T08:24:11.429Z,16.71
2023-04-15T08:26:39.596Z,16.72
2023-04-15T08:29:07.883Z,16.72
2023-04-15T08:31:36.010Z,16.73
2023-04-15T08:34:04.187Z,16.73
2023-04-15T08:36:32.482Z,16.72
2023-04-15T08:39:03.304Z,16.74
2023-04-15T08:41:41.634Z,16.73
2023-04-15T08:44:11.517Z,16.72
2023-04-15T08:46:40.238Z,16.73
2023-04-15T08:49:11.951Z,16.74
2023-04-15T08:51:41.350Z,16.74
2023-04-15T08:54:09.887Z,16.74
2023-04-15T08:56:40.724Z,16.76
2023-04-15T08:59:11.225Z,16.74
2023-04-15T09:01:39.745Z,16.70
2023-04-15T09:04:08.496Z,16.77
2023-04-15T09:06:36.859Z,16.77
2023-04-15T09:09:05.315Z,16.78
2023-04-15T09:11:33.767Z,16.77
2023-04-15T09:14:03.710Z,16.78
2023-04-15T09:16:32.606Z,16.77
2023-04-15T09:19:00.951Z,16.79
2023-04-15T09:21:29.574Z,16.79
2023-04-15T09:23:59.847Z,16.78
2023-04-15T09:26:33.081Z,16.81
2023-04-15T09:29:07.898Z,16.81
2023-04-15T09:31:36.927Z,16.81
2023-04-15T09:34:05.176Z,16.82
2023-04-15T09:36:52.692Z,16.83
2023-04-15T09:39:21.641Z,16.84
2023-04-15T09:42:05.756Z,16.82
2023-04-15T09:44:35.710Z,16.86
2023-04-15T09:47:03.869Z,16.86
2023-04-15T09:49:32.058Z,16.86
2023-04-15T09:52:05.604Z,16.88
2023-04-15T09:54:36.668Z,16.89
2023-04-15T09:57:09.922Z,16.90
2023-04-15T09:59:39.662Z,16.91
2023-04-15T10:02:08.399Z,16.91
2023-04-15T10:04:39.427Z,16.90
2023-04-15T10:07:09.806Z,16.90
2023-04-15T10:09:39.768Z,16.90
2023-04-15T10:12:07.960Z,16.86
2023-04-15T10:14:39.548Z,16.90
2023-04-15T10:17:12.188Z,16.89
2023-04-15T10:19:41.849Z,16.90
2023-04-15T10:22:10.445Z,16.91
2023-04-15T10:24:40.279Z,16.89
2023-04-15T10:27:09.073Z,16.89
2023-04-15T10:29:37.662Z,16.89
2023-04-15T10:32:06.331Z,16.88
2023-04-15T10:34:36.784Z,16.90
2023-04-15T10:37:05.806Z,16.90
2023-04-15T10:39:44.526Z,16.91
2023-04-15T10:42:13.857Z,16.90
2023-04-15T10:44:45.451Z,16.92
2023-04-15T10:47:15.464Z,16.90
2023-04-15T10:49:53.272Z,16.90
2023-04-15T10:52:25.872Z,16.91
2023-04-15T10:55:04.510Z,16.92
2023-04-15T10:57:36.844Z,16.90
2023-04-15T11:00:13.031Z,16.88
2023-04-15T11:02:47.687Z,16.88
2023-04-15T11:05:18.233Z,16.87
2023-04-15T11:07:51.815Z,16.86
2023-04-15T11:10:54.161Z,16.85
2023-04-15T11:13:28.397Z,16.85
2023-04-15T11:16:01.825Z,16.84
2023-04-15T11:18:36.904Z,16.84
2023-04-15T11:21:09.472Z,16.84
2023-04-15T11:23:40.690Z,16.84
2023-04-15T11:26:11.925Z,16.85
2023-04-15T11:28:41.886Z,16.86
2023-04-15T11:31:11.993Z,16.88
2023-04-15T11:33:48.013Z,16.91
2023-04-15T11:36:17.886Z,16.91
2023-04-15T11:38:48.389Z,16.93
2023-04-15T11:41:16.665Z,16.95
2023-04-15T11:43:44.740Z,16.98
2023-04-15T11:46:12.908Z,16.99
2023-04-15T11:48:44.255Z,16.99
2023-04-15T11:51:14.012Z,17.00
2023-04-15T11:53:46.027Z,17.01
2023-04-15T11:56:20.279Z,17.03
2023-04-15T11:58:50.939Z,17.01
2023-04-15T12:01:19.312Z,17.00
2023-04-15T12:04:01.656Z,17.01
2023-04-15T12:06:35.003Z,17.01
2023-04-15T12:09:10.812Z,17.04
2023-04-15T12:11:44.417Z,17.03
2023-04-15T12:14:14.799Z,17.03
2023-04-15T12:16:49.435Z,17.04
2023-04-15T12:19:24.280Z,17.03
2023-04-15T12:21:53.220Z,17.06
2023-04-15T12:24:23.952Z,17.08
2023-04-15T12:26:54.026Z,17.10
2023-04-15T12:29:26.270Z,17.12
2023-04-15T12:31:56.626Z,17.13
2023-04-15T12:34:29.523Z,17.14
2023-04-15T12:36:58.912Z,17.14
2023-04-15T12:39:30.653Z,17.16
2023-04-15T12:42:00.358Z,17.16
2023-04-15T12:44:29.095Z,17.15
2023-04-15T12:46:57.885Z,17.16
2023-04-15T12:49:26.722Z,17.14
2023-04-15T12:51:56.359Z,17.12
2023-04-15T12:54:24.665Z,17.15
2023-04-15T12:56:55.506Z,17.16
2023-04-15T12:59:24.892Z,17.14
2023-04-15T13:01:53.732Z,17.13
2023-04-15T13:04:22.631Z,17.16
2023-04-15T13:06:53.617Z,17.15
2023-04-15T13:09:21.760Z,17.19
2023-04-15T13:11:51.134Z,17.18
2023-04-15T13:14:20.649Z,17.17
2023-04-15T13:16:48.733Z,17.19
2023-04-15T13:19:16.978Z,17.20
2023-04-15T13:21:45.147Z,17.19
2023-04-15T13:24:13.265Z,17.16
2023-04-15T13:26:41.955Z,17.17
2023-04-15T13:29:10.079Z,17.20
2023-04-15T13:31:39.639Z,17.20
2023-04-15T13:34:07.945Z,17.20
2023-04-15T13:36:36.260Z,17.21
2023-04-15T13:39:05.558Z,17.20
2023-04-15T13:41:33.870Z,17.21
2023-04-15T13:44:01.968Z,17.20
2023-04-15T13:46:30.034Z,17.22
2023-04-15T13:48:59.922Z,17.21
2023-04-15T13:51:28.216Z,17.21
2023-04-15T13:53:56.801Z,17.22
2023-04-15T13:56:25.119Z,17.21
2023-04-15T13:58:54.862Z,17.20
2023-04-15T14:01:28.550Z,17.21
2023-04-15T14:03:57.588Z,17.21
2023-04-15T14:06:27.984Z,17.21
2023-04-15T14:08:56.119Z,17.22
2023-04-15T14:11:24.372Z,17.22
2023-04-15T14:13:52.552Z,17.22
2023-04-15T14:16:20.713Z,17.22
2023-04-15T14:18:48.865Z,17.23
2023-04-15T14:21:17.086Z,17.23
2023-04-15T14:23:46.475Z,17.23
2023-04-15T14:26:14.877Z,17.23
2023-04-15T14:28:45.055Z,17.24
2023-04-15T14:31:14.259Z,17.23
2023-04-15T14:33:42.832Z,17.23
2023-04-15T14:36:11.446Z,17.23
2023-04-15T14:38:40.173Z,17.22
2023-04-15T14:41:10.604Z,17.22
2023-04-15T14:43:39.130Z,17.22
2023-04-15T14:46:08.589Z,17.21
2023-04-15T14:48:37.007Z,17.22
2023-04-15T14:51:05.655Z,17.21
2023-04-15T14:53:34.188Z,17.22
2023-04-15T14:56:02.289Z,17.22
2023-04-15T14:58:32.984Z,17.22
2023-04-15T15:01:01.972Z,17.22
2023-04-15T15:03:30.645Z,17.22
2023-04-15T15:05:58.912Z,17.23
2023-04-15T15:08:27.264Z,17.22
2023-04-15T15:10:55.336Z,17.22
2023-04-15T15:13:23.643Z,17.22
2023-04-15T15:15:53.300Z,17.22
2023-04-15T15:18:21.701Z,17.22
2023-04-15T15:20:49.875Z,17.23
2023-04-15T15:23:18.061Z,17.22
2023-04-15T15:25:49.259Z,17.21
2023-04-15T15:28:17.474Z,17.22
2023-04-15T15:30:45.775Z,17.22
2023-04-15T15:33:16.145Z,17.22
2023-04-15T15:35:44.253Z,17.21
2023-04-15T15:38:13.033Z,17.22
2023-04-15T15:40:41.437Z,17.21
2023-04-15T15:43:09.736Z,17.20
2023-04-15T15:45:37.814Z,17.20
2023-04-15T15:48:07.417Z,17.20
2023-04-15T15:50:37.122Z,17.20
2023-04-15T15:53:05.475Z,17.19
2023-04-15T15:55:36.027Z,17.18
2023-04-15T15:58:04.320Z,17.17
2023-04-15T16:00:32.528Z,17.17
2023-04-15T16:05:31.712Z,17.16
2023-04-15T16:08:01.267Z,17.14
2023-04-15T16:10:29.451Z,17.11
2023-04-15T16:12:57.718Z,17.13
2023-04-15T16:15:27.018Z,17.12
2023-04-15T16:17:55.212Z,17.14
2023-04-15T16:20:23.387Z,17.13
2023-04-15T16:22:51.569Z,17.12
2023-04-15T16:25:21.260Z,17.12
2023-04-15T16:27:59.314Z,17.13
2023-04-15T16:30:30.112Z,17.12
2023-04-15T16:32:58.447Z,17.09
2023-04-15T16:35:26.604Z,17.10
2023-04-15T16:37:54.805Z,17.11
2023-04-15T16:40:24.423Z,17.11
2023-04-15T16:42:53.149Z,17.11
2023-04-15T16:45:24.890Z,17.13
2023-04-15T16:47:54.294Z,17.11
2023-04-15T16:50:22.952Z,17.12
2023-04-15T16:52:51.124Z,17.12
2023-04-15T16:55:19.263Z,17.12
2023-04-15T16:58:02.492Z,17.12
2023-04-15T17:00:32.180Z,17.10
2023-04-15T17:03:01.465Z,17.08
2023-04-15T17:05:30.605Z,17.11
2023-04-15T17:07:58.985Z,17.13
2023-04-15T17:10:27.551Z,17.19
2023-04-15T17:12:59.199Z,17.26
2023-04-15T17:15:27.549Z,17.37
2023-04-15T17:17:56.006Z,17.51
2023-04-15T17:20:24.319Z,17.62
2023-04-15T17:22:52.506Z,17.72
2023-04-15T17:25:20.865Z,17.83
2023-04-15T17:27:49.036Z,17.91
2023-04-15T17:30:18.649Z,18.05
2023-04-15T17:32:46.930Z,18.15
2023-04-15T17:35:15.142Z,18.23
2023-04-15T17:37:43.248Z,18.34
2023-04-15T17:40:12.545Z,18.44
2023-04-15T17:42:40.707Z,18.54
2023-04-15T17:45:10.179Z,18.60
2023-04-15T17:47:39.719Z,18.69
2023-04-15T17:50:09.279Z,18.77
2023-04-15T17:52:37.640Z,18.88
2023-04-15T17:55:06.597Z,18.98
2023-04-15T17:57:34.924Z,19.05
2023-04-15T18:00:03.702Z,19.16
2023-04-15T18:02:33.736Z,19.25
2023-04-15T18:05:05.322Z,19.31
2023-04-15T18:07:33.570Z,19.35
2023-04-15T18:10:01.981Z,19.40
2023-04-15T18:12:30.228Z,19.42
2023-04-15T18:14:58.338Z,19.45
2023-04-15T18:17:26.505Z,19.50
2023-04-15T18:19:54.624Z,19.53
2023-04-15T18:22:24.220Z,19.55
2023-04-15T18:24:52.316Z,19.58
2023-04-15T18:27:20.489Z,19.65
2023-04-15T18:29:48.673Z,19.70
2023-04-15T18:32:16.833Z,19.78
2023-04-15T18:34:44.963Z,19.84
2023-04-15T18:37:13.046Z,19.89
2023-04-15T18:39:42.633Z,19.96
2023-04-15T18:42:10.697Z,20.01
2023-04-15T18:44:38.793Z,20.04
2023-04-15T18:47:09.009Z,20.05
2023-04-15T18:49:37.776Z,20.06
2023-04-15T18:52:06.632Z,20.05
2023-04-15T18:54:34.892Z,20.04
2023-04-15T18:57:04.829Z,20.02
2023-04-15T18:59:33.710Z,20.00
2023-04-15T19:02:03.660Z,19.98
2023-04-15T19:04:31.886Z,19.95
2023-04-15T19:07:00.159Z,19.93
2023-04-15T19:09:32.500Z,19.89
2023-04-15T19:12:00.574Z,19.85
2023-04-15T19:14:30.177Z,19.80
2023-04-15T19:16:58.591Z,19.78
2023-04-15T19:19:27.054Z,19.75
2023-04-15T19:21:56.005Z,19.72
2023-04-15T19:24:24.725Z,19.69
2023-04-15T19:26:52.720Z,19.67
2023-04-15T19:29:21.916Z,19.62
2023-04-15T19:31:51.701Z,19.61
2023-04-15T19:34:20.025Z,19.56
2023-04-15T19:36:48.263Z,19.52
2023-04-15T19:39:16.409Z,19.52
2023-04-15T19:41:44.833Z,19.47
2023-04-15T19:44:13.677Z,19.44
2023-04-15T19:46:44.113Z,19.41
2023-04-15T19:49:13.710Z,19.40
2023-04-15T19:51:42.676Z,19.36
2023-04-15T19:54:11.064Z,19.32
2023-04-15T19:56:39.208Z,19.29
2023-04-15T19:59:10.177Z,19.28
2023-04-15T20:01:38.669Z,19.25
2023-04-15T20:04:07.023Z,19.21
2023-04-15T20:06:36.489Z,19.20
2023-04-15T20:09:05.072Z,19.15
2023-04-15T20:12:48.438Z,19.12
2023-04-15T20:14:21.613Z,19.09
2023-04-15T20:16:49.708Z,19.06
2023-04-15T20:19:17.943Z,19.02
2023-04-15T20:21:47.690Z,19.00
2023-04-15T20:24:15.840Z,18.97
2023-04-15T20:26:46.542Z,18.92
2023-04-15T20:29:14.920Z,18.91
2023-04-15T20:31:43.232Z,18.88
2023-04-15T20:34:12.220Z,18.85
2023-04-15T20:36:40.426Z,18.83
2023-04-15T20:39:09.941Z,18.79
2023-04-15T20:41:38.184Z,18.78
2023-04-15T20:44:06.288Z,18.80
2023-04-15T20:46:34.367Z,18.83
2023-04-15T20:49:02.489Z,18.93
2023-04-15T20:51:37.186Z,19.00
2023-04-15T20:54:05.629Z,19.11
2023-04-15T20:56:35.167Z,19.18
2023-04-15T20:59:03.491Z,19.26
2023-04-15T21:01:31.684Z,19.34
2023-04-15T21:04:05.534Z,19.39
2023-04-15T21:06:34.333Z,19.44
2023-04-15T21:09:02.775Z,19.51
2023-04-15T21:11:53.156Z,19.55
2023-04-15T21:14:20.447Z,19.56
2023-04-15T21:16:48.618Z,19.55
2023-04-15T21:19:16.886Z,19.55
2023-04-15T21:21:45.079Z,19.53
2023-04-15T21:24:13.112Z,19.52
2023-04-15T21:26:43.601Z,19.49
2023-04-15T21:29:12.174Z,19.48
2023-04-15T21:31:42.122Z,19.44
2023-04-15T21:34:10.636Z,19.43
2023-04-15T21:36:39.350Z,19.41
2023-04-15T21:39:07.914Z,19.39
2023-04-15T21:41:37.779Z,19.34
2023-04-15T21:44:06.145Z,19.33
2023-04-15T21:46:35.568Z,19.32
2023-04-15T21:49:07.040Z,19.29
2023-04-15T21:51:35.582Z,19.26
2023-04-15T21:54:03.732Z,19.24
2023-04-15T21:56:31.768Z,19.21
2023-04-15T21:58:59.985Z,19.18
2023-04-15T22:01:28.284Z,19.16
2023-04-15T22:03:56.496Z,19.13
2023-04-15T22:06:27.115Z,19.11
2023-04-15T22:08:57.408Z,19.08
2023-04-15T22:11:28.196Z,19.06
2023-04-15T22:13:56.998Z,19.04
2023-04-15T22:16:26.557Z,19.02
2023-04-15T22:18:55.026Z,18.99
2023-04-15T22:21:23.320Z,18.97
2023-04-15T22:23:53.218Z,18.94
2023-04-15T22:26:41.288Z,18.91
2023-04-15T22:29:09.451Z,18.89
2023-04-15T22:31:37.590Z,18.83
2023-04-15T22:34:05.810Z,18.82
2023-04-15T22:36:33.848Z,18.79
2023-04-15T22:39:03.851Z,18.78
2023-04-15T22:41:32.229Z,18.75
2023-04-15T22:44:00.420Z,18.72
2023-04-15T22:46:28.569Z,18.70
2023-04-15T22:48:56.892Z,18.67
2023-04-15T22:51:27.930Z,18.65
2023-04-15T22:53:56.283Z,18.63
2023-04-15T22:56:25.855Z,18.60
2023-04-15T22:58:53.866Z,18.58
2023-04-15T23:01:22.004Z,18.54
2023-04-15T23:03:57.780Z,18.53
2023-04-15T23:06:32.695Z,18.51
2023-04-15T23:09:01.609Z,18.48
2023-04-15T23:11:31.185Z,18.46
2023-04-15T23:13:59.223Z,18.44
2023-04-15T23:16:28.261Z,18.42
2023-04-15T23:18:56.434Z,18.39
2023-04-15T23:21:26.058Z,18.39
2023-04-15T23:23:56.713Z,18.36
2023-04-15T23:26:24.938Z,18.34
2023-04-15T23:28:54.408Z,18.31
2023-04-15T23:31:23.026Z,18.30
2023-04-15T23:33:51.377Z,18.27
2023-04-15T23:36:19.494Z,18.25
2023-04-15T23:38:47.941Z,18.24
2023-04-15T23:41:16.092Z,18.22
2023-04-15T23:43:44.148Z,18.21
2023-04-15T23:46:13.599Z,18.19
2023-04-15T23:48:41.931Z,18.14
2023-04-15T23:51:10.069Z,18.14
2023-04-15T23:53:38.286Z,18.13
2023-04-15T23:56:06.966Z,18.12
2023-04-15T23:58:35.020Z,18.11
